createdAt,value
2018-05-02T00:01:00.669Z,11.80
2018-05-02T00:03:28.779Z,11.70
2018-05-02T00:05:55.071Z,11.70
2018-05-02T00:08:21.425Z,11.70
2018-05-02T00:10:47.947Z,11.60
2018-05-02T00:13:15.104Z,11.60
2018-05-02T00:15:42.658Z,11.60
2018-05-02T00:18:09.007Z,11.50
2018-05-02T00:20:35.309Z,11.60
2018-05-02T00:23:01.881Z,11.50
2018-05-02T00:25:28.234Z,11.50
2018-05-02T00:27:54.600Z,11.40
2018-05-02T00:30:22.178Z,11.40
2018-05-02T00:32:49.252Z,11.40
2018-05-02T00:35:15.797Z,11.30
2018-05-02T00:37:42.993Z,11.30
2018-05-02T00:40:10.398Z,11.30
2018-05-02T00:42:36.790Z,11.20
2018-05-02T00:45:03.296Z,11.30
2018-05-02T00:47:29.781Z,11.20
2018-05-02T00:49:56.844Z,11.20
2018-05-02T00:52:23.252Z,11.20
2018-05-02T00:54:50.440Z,11.10
2018-05-02T00:57:16.976Z,11.10
2018-05-02T00:59:43.490Z,11.10
2018-05-02T01:02:09.799Z,11.10
2018-05-02T01:04:36.851Z,11.00
2018-05-02T01:07:03.132Z,11.00
2018-05-02T01:09:30.157Z,11.00
2018-05-02T01:11:56.455Z,11.00
2018-05-02T01:14:22.697Z,11.00
2018-05-02T01:16:49.714Z,10.90
2018-05-02T01:19:20.123Z,10.90
2018-05-02T01:21:47.538Z,10.90
2018-05-02T01:24:13.925Z,10.90
2018-05-02T01:26:40.313Z,10.80
2018-05-02T01:29:06.724Z,10.80
2018-05-02T01:31:34.661Z,10.80
2018-05-02T01:34:01.007Z,10.80
2018-05-02T01:36:28.013Z,10.70
2018-05-02T01:38:54.349Z,10.70
2018-05-02T01:41:20.781Z,10.70
2018-05-02T01:43:48.043Z,10.70
2018-05-02T01:46:14.478Z,10.60
2018-05-02T01:48:40.799Z,10.60
2018-05-02T01:51:07.121Z,10.60
2018-05-02T01:53:34.034Z,10.60
2018-05-02T01:56:00.418Z,10.60
2018-05-02T01:58:28.163Z,10.60
2018-05-02T02:00:55.203Z,10.60
2018-05-02T02:03:21.519Z,10.50
2018-05-02T02:05:47.877Z,10.50
2018-05-02T02:08:14.205Z,10.50
2018-05-02T02:10:40.511Z,10.40
2018-05-02T02:13:06.950Z,10.40
2018-05-02T02:15:33.330Z,10.40
2018-05-02T02:17:59.794Z,10.40
2018-05-02T02:20:26.141Z,10.40
2018-05-02T02:22:52.497Z,10.40
2018-05-02T02:25:18.797Z,10.30
2018-05-02T02:27:45.091Z,10.30
2018-05-02T02:30:11.511Z,10.30
2018-05-02T02:32:38.002Z,10.30
2018-05-02T02:35:05.937Z,10.20
2018-05-02T02:37:32.908Z,10.20
2018-05-02T02:39:59.243Z,10.20
2018-05-02T02:47:58.141Z,10.10
2018-05-02T02:50:24.460Z,10.10
2018-05-02T02:52:51.569Z,10.10
2018-05-02T02:55:18.639Z,10.10
2018-05-02T02:57:44.921Z,10.10
2018-05-02T03:00:12.191Z,10.00
2018-05-02T03:02:38.589Z,10.00
2018-05-02T03:05:04.928Z,10.00
2018-05-02T03:07:31.358Z,10.00
2018-05-02T03:09:57.708Z,10.00
2018-05-02T03:12:24.032Z,10.00
2018-05-02T03:14:50.417Z,10.00
2018-05-02T03:17:16.796Z,9.90
2018-05-02T03:19:43.226Z,9.90
2018-05-02T03:22:09.717Z,9.90
2018-05-02T03:24:36.821Z,9.90
2018-05-02T03:27:03.271Z,9.90
2018-05-02T03:29:29.753Z,9.90
2018-05-02T03:31:56.117Z,9.80
2018-05-02T03:34:22.479Z,9.80
2018-05-02T03:36:48.818Z,9.80
2018-05-02T03:39:15.211Z,9.80
2018-05-02T03:41:41.551Z,9.80
2018-05-02T03:44:07.979Z,9.80
2018-05-02T03:46:34.362Z,9.70
2018-05-02T03:49:01.415Z,9.70
2018-05-02T03:51:27.811Z,9.70
2018-05-02T03:53:54.232Z,9.70
2018-05-02T03:56:20.637Z,9.70
2018-05-02T03:58:47.075Z,9.70
2018-05-02T04:01:14.203Z,9.70
2018-05-02T04:03:40.543Z,9.60
2018-05-02T04:06:07.636Z,9.60
2018-05-02T04:08:34.179Z,9.60
2018-05-02T04:11:00.714Z,9.60
2018-05-02T04:13:27.056Z,9.60
2018-05-02T04:15:53.686Z,9.60
2018-05-02T04:18:20.043Z,9.60
2018-05-02T04:20:46.397Z,9.50
2018-05-02T04:23:13.083Z,9.60
2018-05-02T04:25:39.420Z,9.50
2018-05-02T04:28:05.758Z,9.50
2018-05-02T04:30:32.122Z,9.50
2018-05-02T04:32:58.399Z,9.50
2018-05-02T04:35:25.570Z,9.40
2018-05-02T04:37:52.002Z,9.40
2018-05-02T04:40:18.415Z,9.40
2018-05-02T04:42:44.754Z,9.40
2018-05-02T04:45:11.078Z,9.40
2018-05-02T04:47:38.097Z,9.40
2018-05-02T04:50:04.367Z,9.40
2018-05-02T04:52:30.784Z,9.40
2018-05-02T04:54:57.084Z,9.40
2018-05-02T04:57:23.432Z,9.40
2018-05-02T04:59:50.350Z,9.40
2018-05-02T05:02:16.873Z,9.40
2018-05-02T05:04:43.287Z,9.40
2018-05-02T05:07:09.603Z,9.30
2018-05-02T05:09:36.642Z,9.30
2018-05-02T05:12:02.977Z,9.30
2018-05-02T05:14:29.295Z,9.30
2018-05-02T05:16:55.777Z,9.30
2018-05-02T05:19:22.201Z,9.30
2018-05-02T05:21:48.611Z,9.30
2018-05-02T05:24:15.067Z,9.30
2018-05-02T05:26:42.196Z,9.30
2018-05-02T05:29:08.635Z,9.30
2018-05-02T05:31:35.101Z,9.30
2018-05-02T05:34:01.525Z,9.30
2018-05-02T05:36:27.904Z,9.30
2018-05-02T05:38:54.243Z,9.30
2018-05-02T05:41:21.465Z,9.30
2018-05-02T05:43:47.873Z,9.30
2018-05-02T05:46:14.816Z,9.30
2018-05-02T05:48:41.113Z,9.30
2018-05-02T05:51:07.601Z,9.30
2018-05-02T05:53:33.967Z,9.40
2018-05-02T05:56:00.360Z,9.40
2018-05-02T05:58:26.741Z,9.60
2018-05-02T06:00:54.773Z,9.90
2018-05-02T06:03:21.517Z,9.90
2018-05-02T06:05:47.952Z,10.10
2018-05-02T06:08:14.787Z,10.20
2018-05-02T06:10:41.165Z,10.40
2018-05-02T06:13:07.475Z,10.50
2018-05-02T06:15:33.977Z,10.70
2018-05-02T06:18:00.337Z,10.70
2018-05-02T06:20:26.726Z,10.80
2018-05-02T06:22:53.797Z,11.00
2018-05-02T06:25:20.190Z,11.00
2018-05-02T06:27:46.616Z,11.10
2018-05-02T06:30:12.951Z,11.20
2018-05-02T06:32:40.072Z,11.40
2018-05-02T06:35:06.488Z,11.40
2018-05-02T06:37:32.896Z,11.50
2018-05-02T06:39:59.972Z,11.60
2018-05-02T06:42:26.357Z,11.60
2018-05-02T06:44:53.605Z,11.70
2018-05-02T06:47:20.741Z,11.70
2018-05-02T06:49:47.857Z,11.80
2018-05-02T06:52:14.289Z,11.80
2018-05-02T06:54:40.608Z,11.80
2018-05-02T06:57:07.697Z,11.90
2018-05-02T06:59:34.135Z,11.90
2018-05-02T07:02:00.506Z,11.90
2018-05-02T07:04:27.646Z,11.90
2018-05-02T07:06:53.957Z,11.90
2018-05-02T07:09:20.397Z,12.00
2018-05-02T07:11:46.721Z,12.00
2018-05-02T07:14:13.094Z,12.00
2018-05-02T07:16:39.470Z,12.00
2018-05-02T07:19:05.793Z,12.10
2018-05-02T07:21:32.130Z,12.10
2018-05-02T07:23:58.524Z,12.10
2018-05-02T07:26:24.913Z,12.20
2018-05-02T07:28:51.306Z,12.20
2018-05-02T07:31:17.628Z,12.20
2018-05-02T07:33:44.714Z,12.30
2018-05-02T07:36:11.190Z,12.30
2018-05-02T07:38:37.499Z,12.30
2018-05-02T07:41:03.798Z,12.40
2018-05-02T07:43:30.120Z,12.40
2018-05-02T07:45:57.166Z,12.50
2018-05-02T07:48:23.599Z,12.50
2018-05-02T07:50:49.996Z,12.60
2018-05-02T07:53:16.351Z,12.60
2018-05-02T07:55:42.689Z,12.70
2018-05-02T07:58:24.801Z,12.80
2018-05-02T08:00:51.186Z,12.80
2018-05-02T08:03:17.551Z,12.80
2018-05-02T08:05:43.979Z,12.90
2018-05-02T08:08:10.299Z,12.90
2018-05-02T08:10:37.009Z,13.00
2018-05-02T08:13:09.491Z,13.00
2018-05-02T08:15:35.829Z,13.10
2018-05-02T08:18:02.179Z,13.10
2018-05-02T08:20:28.529Z,13.20
2018-05-02T08:22:54.937Z,13.20
2018-05-02T08:25:22.027Z,13.40
2018-05-02T08:27:48.338Z,13.40
2018-05-02T08:30:15.404Z,13.50
2018-05-02T08:32:41.807Z,13.50
2018-05-02T08:35:08.192Z,13.60
2018-05-02T08:37:34.585Z,13.60
2018-05-02T08:40:01.673Z,13.70
2018-05-02T08:42:27.983Z,13.70
2018-05-02T08:44:55.059Z,13.80
2018-05-02T08:47:21.383Z,13.80
2018-05-02T08:49:47.780Z,13.90
2018-05-02T08:52:14.047Z,13.90
2018-05-02T08:54:41.410Z,14.10
2018-05-02T08:57:07.705Z,14.00
2018-05-02T08:59:34.818Z,14.20
2018-05-02T09:02:02.134Z,14.20
2018-05-02T09:04:28.587Z,14.20
2018-05-02T09:06:56.432Z,14.30
2018-05-02T09:09:22.742Z,14.30
2018-05-02T09:11:49.224Z,14.40
2018-05-02T09:14:15.652Z,14.50
2018-05-02T09:16:42.714Z,14.50
2018-05-02T09:19:09.030Z,14.60
2018-05-02T09:21:36.186Z,14.70
2018-05-02T09:24:02.613Z,14.70
2018-05-02T09:26:29.670Z,14.80
2018-05-02T09:28:56.110Z,14.80
2018-05-02T09:31:22.537Z,14.80
2018-05-02T09:33:49.696Z,14.90
2018-05-02T09:36:18.211Z,14.90
2018-05-02T09:38:44.565Z,15.00
2018-05-02T09:41:10.883Z,15.10
2018-05-02T09:43:37.173Z,15.10
2018-05-02T09:46:03.487Z,15.10
2018-05-02T09:48:30.535Z,15.30
2018-05-02T09:50:57.595Z,15.30
2018-05-02T09:53:24.031Z,15.30
2018-05-02T09:55:50.371Z,15.30
2018-05-02T09:58:16.703Z,15.40
2018-05-02T10:00:42.991Z,15.50
2018-05-02T10:03:10.282Z,15.60
2018-05-02T10:05:36.796Z,15.50
2018-05-02T10:08:03.898Z,15.60
2018-05-02T10:10:30.176Z,15.60
2018-05-02T10:12:56.494Z,15.70
2018-05-02T10:15:23.588Z,15.80
2018-05-02T10:17:50.090Z,15.70
2018-05-02T10:20:16.430Z,15.80
2018-05-02T10:22:43.512Z,15.90
2018-05-02T10:25:09.930Z,15.90
2018-05-02T10:27:36.500Z,15.90
2018-05-02T10:30:02.866Z,16.00
2018-05-02T10:32:30.652Z,16.00
2018-05-02T10:34:57.756Z,16.10
2018-05-02T10:37:24.270Z,16.00
2018-05-02T10:39:50.632Z,16.10
2018-05-02T10:42:16.964Z,16.10
2018-05-02T10:44:43.353Z,16.20
2018-05-02T10:47:09.811Z,16.20
2018-05-02T10:49:36.288Z,16.20
2018-05-02T10:52:02.692Z,16.30
2018-05-02T10:54:29.064Z,16.30
2018-05-02T10:56:56.679Z,16.30
2018-05-02T10:59:23.090Z,16.30
2018-05-02T11:01:50.233Z,16.40
2018-05-02T11:04:17.332Z,16.50
2018-05-02T11:06:43.843Z,16.40
2018-05-02T11:09:10.265Z,16.50
2018-05-02T11:11:36.683Z,16.50
2018-05-02T11:14:03.748Z,16.60
2018-05-02T11:16:30.914Z,16.60
2018-05-02T11:18:57.494Z,16.60
2018-05-02T11:21:23.816Z,16.60
2018-05-02T11:23:50.161Z,16.70
2018-05-02T11:26:16.473Z,16.70
2018-05-02T11:28:49.106Z,16.70
2018-05-02T11:31:20.541Z,16.70
2018-05-02T11:33:47.814Z,16.80
2018-05-02T11:36:14.933Z,16.80
2018-05-02T11:38:50.669Z,16.80
2018-05-02T11:41:17.018Z,16.80
2018-05-02T11:43:44.267Z,16.90
2018-05-02T11:46:11.458Z,16.90
2018-05-02T11:48:38.585Z,17.00
2018-05-02T11:51:05.149Z,17.00
2018-05-02T11:53:32.203Z,17.00
2018-05-02T11:55:59.269Z,17.10
2018-05-02T11:58:25.634Z,17.10
2018-05-02T12:00:51.984Z,17.10
2018-05-02T12:03:18.515Z,17.10
2018-05-02T12:05:50.617Z,17.20
2018-05-02T12:08:21.089Z,17.20
2018-05-02T12:10:47.686Z,17.20
2018-05-02T12:13:14.695Z,17.30
2018-05-02T12:15:42.245Z,17.30
2018-05-02T12:18:11.012Z,17.30
2018-05-02T12:20:39.495Z,17.30
2018-05-02T12:23:06.970Z,17.40
2018-05-02T12:25:33.590Z,17.40
2018-05-02T12:28:02.136Z,17.40
2018-05-02T12:30:29.200Z,17.50
2018-05-02T12:33:00.448Z,17.50
2018-05-02T12:35:28.431Z,17.50
2018-05-02T12:37:54.756Z,17.50
2018-05-02T12:40:21.184Z,17.50
2018-05-02T12:42:47.555Z,17.60
2018-05-02T12:45:13.868Z,17.60
2018-05-02T12:47:40.229Z,17.60
2018-05-02T12:50:06.560Z,17.60
2018-05-02T12:52:33.716Z,17.70
2018-05-02T12:55:01.412Z,17.70
2018-05-02T12:57:32.305Z,17.70
2018-05-02T13:02:53.679Z,17.70
2018-05-02T13:05:23.209Z,17.80
2018-05-02T13:07:52.257Z,17.80
2018-05-02T13:10:19.583Z,17.80
2018-05-02T13:12:46.985Z,17.90
2018-05-02T13:15:14.728Z,17.90
2018-05-02T13:17:41.593Z,17.90
2018-05-02T13:20:12.571Z,17.90
2018-05-02T13:22:39.063Z,17.90
2018-05-02T13:25:05.833Z,17.90
2018-05-02T13:27:32.501Z,18.00
2018-05-02T13:29:58.903Z,18.00
2018-05-02T13:32:25.347Z,18.00
2018-05-02T13:34:51.750Z,18.00
2018-05-02T13:37:18.136Z,18.00
2018-05-02T13:39:44.433Z,18.10
2018-05-02T13:42:10.719Z,18.10
2018-05-02T13:44:37.823Z,18.10
2018-05-02T13:47:04.211Z,18.10
2018-05-02T13:49:30.678Z,18.10
2018-05-02T13:51:57.104Z,18.10
2018-05-02T13:54:23.408Z,18.10
2018-05-02T13:56:49.840Z,18.20
2018-05-02T13:59:16.208Z,18.20
2018-05-02T14:01:46.086Z,18.20
2018-05-02T14:04:14.920Z,18.20
2018-05-02T14:06:42.344Z,18.20
2018-05-02T14:09:09.498Z,18.30
2018-05-02T14:11:35.878Z,18.20
2018-05-02T14:14:02.332Z,18.30
2018-05-02T14:16:28.630Z,18.30
2018-05-02T14:18:55.747Z,18.30
2018-05-02T14:21:22.170Z,18.30
2018-05-02T14:23:48.561Z,18.30
2018-05-02T14:26:15.086Z,18.30
2018-05-02T14:28:42.286Z,18.40
2018-05-02T14:31:08.626Z,18.30
2018-05-02T14:33:34.990Z,18.40
2018-05-02T14:36:01.425Z,18.40
2018-05-02T14:38:27.815Z,18.40
2018-05-02T14:40:54.158Z,18.40
2018-05-02T14:43:21.462Z,18.40
2018-05-02T14:45:47.922Z,18.50
2018-05-02T14:48:14.980Z,18.50
2018-05-02T14:50:41.308Z,18.50
2018-05-02T14:53:07.669Z,18.50
2018-05-02T14:55:34.053Z,18.50
2018-05-02T14:58:00.380Z,18.50
2018-05-02T15:00:26.743Z,18.50
2018-05-02T15:02:53.857Z,18.50
2018-05-02T15:05:21.006Z,18.50
2018-05-02T15:07:48.148Z,18.50
2018-05-02T15:10:15.277Z,18.50
2018-05-02T15:12:41.813Z,18.50
2018-05-02T15:15:08.190Z,18.50
2018-05-02T15:17:35.279Z,18.50
2018-05-02T15:20:01.675Z,18.50
2018-05-02T15:22:29.110Z,18.50
2018-05-02T15:24:56.317Z,18.50
2018-05-02T15:27:22.660Z,18.50
2018-05-02T15:29:48.978Z,18.50
2018-05-02T15:32:15.292Z,18.50
2018-05-02T15:34:42.374Z,18.50
2018-05-02T15:37:08.730Z,18.50
2018-05-02T15:39:35.846Z,18.50
2018-05-02T15:42:02.406Z,18.50
2018-05-02T15:44:29.635Z,18.50
2018-05-02T15:46:56.172Z,18.50
2018-05-02T15:49:23.048Z,18.50
2018-05-02T15:57:22.756Z,18.50
2018-05-02T15:59:49.229Z,18.50
2018-05-02T16:02:15.560Z,18.50
2018-05-02T16:04:41.967Z,18.50
2018-05-02T16:07:08.327Z,18.40
2018-05-02T16:09:34.670Z,18.40
2018-05-02T16:12:00.942Z,18.40
2018-05-02T16:14:27.961Z,18.40
2018-05-02T16:16:54.264Z,18.40
2018-05-02T16:19:21.474Z,18.40
2018-05-02T16:21:48.550Z,18.30
2018-05-02T16:24:14.962Z,18.30
2018-05-02T16:26:41.326Z,18.30
2018-05-02T16:29:07.672Z,18.30
2018-05-02T16:31:35.566Z,18.30
2018-05-02T16:34:01.997Z,18.30
2018-05-02T16:36:28.395Z,18.30
2018-05-02T16:38:54.794Z,18.30
2018-05-02T16:41:21.916Z,18.20
2018-05-02T16:43:48.232Z,18.20
2018-05-02T16:46:14.749Z,18.20
2018-05-02T16:48:41.109Z,18.20
2018-05-02T16:51:07.450Z,18.20
2018-05-02T16:53:33.852Z,18.20
2018-05-02T16:56:00.215Z,18.20
2018-05-02T16:58:26.561Z,18.10
2018-05-02T17:00:52.943Z,18.10
2018-05-02T17:03:19.365Z,18.10
2018-05-02T17:05:45.762Z,18.10
2018-05-02T17:08:12.931Z,18.10
2018-05-02T17:10:39.326Z,18.00
2018-05-02T17:13:05.735Z,18.00
2018-05-02T17:15:32.807Z,18.00
2018-05-02T17:17:59.259Z,18.00
2018-05-02T17:20:25.567Z,18.00
2018-05-02T17:22:51.857Z,17.90
2018-05-02T17:25:18.939Z,17.90
2018-05-02T17:27:45.302Z,17.90
2018-05-02T17:30:11.901Z,17.90
2018-05-02T17:32:38.340Z,17.80
2018-05-02T17:35:04.811Z,17.80
2018-05-02T17:37:31.909Z,17.80
2018-05-02T17:39:59.050Z,17.80
2018-05-02T17:42:25.333Z,17.80
2018-05-02T17:44:58.785Z,17.70
2018-05-02T17:47:25.232Z,17.70
2018-05-02T17:49:52.245Z,17.60
2018-05-02T17:52:18.584Z,17.60
2018-05-02T17:54:45.710Z,17.60
2018-05-02T17:57:12.109Z,17.60
2018-05-02T17:59:38.454Z,17.60
2018-05-02T18:02:04.835Z,17.50
2018-05-02T18:04:31.211Z,17.50
2018-05-02T18:06:57.558Z,17.50
2018-05-02T18:09:24.127Z,17.50
2018-05-02T18:11:51.213Z,17.40
2018-05-02T18:14:17.602Z,17.40
2018-05-02T18:16:44.682Z,17.40
2018-05-02T18:19:11.094Z,17.30
2018-05-02T18:21:37.592Z,17.30
2018-05-02T18:24:03.937Z,17.30
2018-05-02T18:26:30.211Z,17.20
2018-05-02T18:28:57.243Z,17.20
2018-05-02T18:31:23.666Z,17.20
2018-05-02T18:33:50.229Z,17.20
2018-05-02T18:36:16.640Z,17.10
2018-05-02T18:38:42.958Z,17.10
2018-05-02T18:41:09.459Z,17.10
2018-05-02T18:43:35.879Z,17.00
2018-05-02T18:46:02.246Z,17.00
2018-05-02T18:48:30.118Z,17.00
2018-05-02T18:50:56.443Z,16.90
2018-05-02T18:53:22.793Z,16.90
2018-05-02T18:55:49.271Z,16.90
2018-05-02T18:58:15.755Z,16.80
2018-05-02T19:00:42.375Z,16.80
2018-05-02T19:03:08.730Z,16.80
2018-05-02T19:05:35.883Z,16.80
2018-05-02T19:08:03.171Z,16.70
2018-05-02T19:10:30.358Z,16.70
2018-05-02T19:12:56.703Z,16.70
2018-05-02T19:15:23.045Z,16.70
2018-05-02T19:17:55.415Z,16.60
2018-05-02T19:20:27.907Z,16.60
2018-05-02T19:22:54.272Z,16.60
2018-05-02T19:25:26.654Z,16.50
2018-05-02T19:27:53.872Z,16.50
2018-05-02T19:30:20.232Z,16.40
2018-05-02T19:35:50.868Z,16.40
2018-05-02T19:38:17.478Z,16.30
2018-05-02T19:40:49.791Z,16.30
2018-05-02T19:43:22.095Z,16.30
2018-05-02T19:45:48.606Z,16.30
2018-05-02T19:48:14.995Z,16.30
2018-05-02T19:50:41.543Z,16.20
2018-05-02T19:53:07.994Z,16.20
2018-05-02T19:55:35.367Z,16.10
2018-05-02T19:58:02.152Z,16.10
2018-05-02T20:00:34.826Z,16.10
2018-05-02T20:03:02.192Z,16.10
2018-05-02T20:05:28.768Z,16.00
2018-05-02T20:07:55.264Z,16.00
2018-05-02T20:10:27.985Z,16.00
2018-05-02T20:13:00.492Z,15.90
2018-05-02T20:15:27.673Z,15.90
2018-05-02T20:17:54.754Z,15.90
2018-05-02T20:20:21.136Z,15.80
2018-05-02T20:22:47.523Z,15.80
2018-05-02T20:25:14.864Z,15.80
2018-05-02T20:27:41.205Z,15.80
2018-05-02T20:30:08.298Z,15.70
2018-05-02T20:32:34.636Z,15.70
2018-05-02T20:35:01.141Z,15.70
2018-05-02T20:37:27.443Z,15.70
2018-05-02T20:39:53.805Z,15.70
2018-05-02T20:42:23.075Z,15.60
2018-05-02T20:44:49.963Z,15.60
2018-05-02T20:47:17.114Z,15.50
2018-05-02T20:49:43.580Z,15.50
2018-05-02T20:52:10.649Z,15.50
2018-05-02T20:58:06.656Z,15.50
2018-05-02T21:00:33.019Z,15.40
2018-05-02T21:02:59.403Z,15.40
2018-05-02T21:05:25.708Z,15.40
2018-05-02T21:07:52.002Z,15.30
2018-05-02T21:10:18.398Z,15.30
2018-05-02T21:12:44.816Z,15.30
2018-05-02T21:15:12.040Z,15.20
2018-05-02T21:17:39.113Z,15.20
2018-05-02T21:20:05.450Z,15.20
2018-05-02T21:22:31.847Z,15.20
2018-05-02T21:24:59.066Z,15.10
2018-05-02T21:27:25.411Z,15.10
2018-05-02T21:29:52.550Z,15.10
2018-05-02T21:32:33.802Z,15.00
2018-05-02T21:35:00.988Z,15.00
2018-05-02T21:37:27.344Z,15.00
2018-05-02T21:39:53.727Z,15.00
2018-05-02T21:42:20.072Z,14.90
2018-05-02T21:44:46.425Z,14.90
2018-05-02T21:47:13.553Z,14.90
2018-05-02T21:49:39.846Z,14.90
2018-05-02T21:52:06.155Z,14.90
2018-05-02T21:54:32.495Z,14.80
2018-05-02T21:56:58.866Z,14.80
2018-05-02T21:59:25.887Z,14.80
2018-05-02T22:01:52.259Z,14.80
2018-05-02T22:04:18.611Z,14.70
2018-05-02T22:06:45.745Z,14.70
2018-05-02T22:09:12.090Z,14.70
2018-05-02T22:11:39.223Z,14.60
2018-05-02T22:14:05.604Z,14.60
2018-05-02T22:16:32.649Z,14.60
2018-05-02T22:18:59.073Z,14.60
2018-05-02T22:21:25.643Z,14.60
2018-05-02T22:23:52.127Z,14.50
2018-05-02T22:26:18.532Z,14.50
2018-05-02T22:28:44.877Z,14.50
2018-05-02T22:31:11.945Z,14.40
2018-05-02T22:33:38.323Z,14.40
2018-05-02T22:36:04.740Z,14.40
2018-05-02T22:38:31.823Z,14.30
2018-05-02T22:40:58.125Z,14.30
2018-05-02T22:43:24.499Z,14.30
2018-05-02T22:45:50.848Z,14.30
2018-05-02T22:48:17.460Z,14.30
2018-05-02T22:50:43.795Z,14.20
2018-05-02T22:53:10.168Z,14.20
2018-05-02T22:55:36.468Z,14.20
2018-05-02T22:58:02.844Z,14.20
2018-05-02T23:00:29.214Z,14.20
2018-05-02T23:02:55.556Z,14.10
2018-05-02T23:05:21.928Z,14.10
2018-05-02T23:07:48.235Z,14.10
2018-05-02T23:10:14.537Z,14.10
2018-05-02T23:12:40.925Z,14.00
2018-05-02T23:15:07.998Z,13.90
2018-05-02T23:17:34.322Z,13.90
2018-05-02T23:20:00.680Z,13.90
2018-05-02T23:22:26.999Z,13.90
2018-05-02T23:24:54.095Z,13.90
2018-05-02T23:27:20.443Z,13.80
2018-05-02T23:29:46.766Z,13.80
2018-05-02T23:32:13.148Z,13.80
2018-05-02T23:34:40.194Z,13.70
2018-05-02T23:37:07.273Z,13.70
2018-05-02T23:39:35.865Z,13.70
2018-05-02T23:42:02.216Z,13.70
2018-05-02T23:44:28.539Z,13.70
2018-05-02T23:46:54.845Z,13.60
2018-05-02T23:49:21.183Z,13.60
2018-05-02T23:51:47.748Z,13.60
2018-05-02T23:54:14.173Z,13.60
2018-05-02T23:56:40.445Z,13.50
2018-05-02T23:59:06.763Z,13.50
